Accueil
METAR-TAF:

METAR-TAF

Aéroports :

Aéroport d'Iquique

Iquique, Chili

latitude: 20-32S, longitude: 070-11W, altitude: 52 m

Observation

Le bulletin a été fait il y a 59 minutes, à 19:00 UTC
Vent 7 kt de ouest/nord-ouest
Température 23°C
Humidité 53%
Pression 1014 hPa
Visibilité 10 km ou plus
pas de nuages en-dessous de 1500 mètres et pas de cumulonimbus.

METAR: SCDA 201900Z 29007KT CAVOK 23/13 Q1014

Heure: 15:59 (19:59 UTC)

Prévision

Le bulletin a été fait il y a 3 heures et 43 minutes, à 16:16 UTC
Prévision valable du 20 à 18 UTC au 21 à 18 UTC
Vent 10 kt de ouest
Visibilité 10 km ou plus
pas de nuages en-dessous de 1500 mètres et pas de cumulonimbus.
Evoluant progressivement
du 21 à 00 UTC au 21 à 02 UTC
Vent 4 kt de est
Evoluant progressivement
du 21 à 14 UTC au 21 à 16 UTC
Vent 14 kt de sud-ouest

TAF: SCDA 201616Z 2018/2118 26010KT CAVOK TX22/2018Z TN17/2110Z BECMG 2100/2102 10004KT BECMG 2114/2116 22014KT

Observations et prévisions météorologiques de plus de 4000 aéroports (messages METAR et TAF).

Les stations disponibles sont représentées par des disques jaunes et rouges sur la carte.

Passer la souris dessus pour voir le nom de la station.

Cliquer dessus pour voir les observations et prévisions météorologiques.

Pour changer de carte: cliquez sur les boutons verts avec une croix noire pour zoomer, sur le bouton vert avec un tiret pour effectuer un zoom arrière, ou sur les flèches vertes pour les cartes adjacentes.


METAR-TAF: